Time;durP1;ratioP1;P1;durP2;ratioP2;P2;SDS_P1;SDS_P2;PMS_P1;PMS_P2;Temp;Humidity;BMP_temperature;BMP_pressure;BME280_temperature;BME280_humidity;BME280_pressure;Samples;Min_cycle;Max_cycle;Signal;HPM_P1;HPM_P2
2022/05/01 00:00:06;;;;;;;28.50;25.90;;;6.50;99.90;;;;;;5041959;28;20044;-75
2022/05/01 00:02:32;;;;;;;28.33;25.50;;;6.40;99.90;;;;;;5039623;28;20049;-75
2022/05/01 00:05:01;;;;;;;27.80;24.50;;;6.40;99.90;;;;;;5039520;28;20045;-79
2022/05/01 00:07:28;;;;;;;28.63;25.85;;;6.30;99.90;;;;;;5038635;28;20045;-76
2022/05/01 00:09:54;;;;;;;29.23;26.00;;;6.40;99.90;;;;;;5027856;28;20044;-74
2022/05/01 00:12:22;;;;;;;31.05;27.73;;;6.30;99.90;;;;;;5015475;28;20057;-75
2022/05/01 00:14:49;;;;;;;29.00;26.02;;;6.40;99.90;;;;;;5034853;28;20115;-74
2022/05/01 00:17:16;;;;;;;31.90;26.33;;;6.40;99.90;;;;;;5041203;28;20483;-76
2022/05/01 00:19:43;;;;;;;28.92;25.98;;;6.40;99.90;;;;;;5041897;28;20076;-75
2022/05/01 00:22:18;;;;;;;28.42;25.42;;;6.40;99.90;;;;;;5038422;28;20055;-76
2022/05/01 00:24:45;;;;;;;27.63;24.42;;;6.40;99.90;;;;;;5039317;28;20160;-76
2022/05/01 00:27:12;;;;;;;28.27;25.05;;;6.40;99.90;;;;;;5056225;28;20124;-76
2022/05/01 00:29:39;;;;;;;28.00;25.38;;;6.50;99.90;;;;;;5041553;28;20056;-76
2022/05/01 00:32:07;;;;;;;29.30;26.13;;;6.50;99.90;;;;;;5041608;28;20045;-76
2022/05/01 00:37:19;;;;;;;;;;;6.60;99.90;;;;;;5040518;28;20044;-76
2022/05/01 00:39:47;;;;;;;27.23;24.63;;;6.60;99.90;;;;;;5027839;28;19921;-76
2022/05/01 00:42:18;;;;;;;26.83;24.38;;;6.60;99.90;;;;;;5028164;28;20816;-77
2022/05/01 00:44:45;;;;;;;26.38;23.75;;;6.50;99.90;;;;;;5033187;28;20069;-76
2022/05/01 00:47:12;;;;;;;26.15;23.85;;;6.50;99.90;;;;;;5040818;28;20060;-76
2022/05/01 00:49:39;;;;;;;28.58;24.50;;;6.60;99.90;;;;;;5038975;28;20138;-76
2022/05/01 00:52:09;;;;;;;30.70;25.95;;;6.60;99.90;;;;;;5039102;28;20041;-77
2022/05/01 00:54:42;;;;;;;34.95;26.33;;;6.70;99.90;;;;;;5038959;28;20241;-75
2022/05/01 00:57:10;;;;;;;26.98;24.15;;;6.70;99.90;;;;;;5040622;28;20045;-76
2022/05/01 00:59:38;;;;;;;28.23;25.63;;;6.80;99.90;;;;;;5041578;28;20102;-75
2022/05/01 01:02:06;;;;;;;30.15;26.20;;;6.80;99.90;;;;;;5040890;28;20491;-77
2022/05/01 01:04:34;;;;;;;27.17;24.67;;;6.70;99.90;;;;;;5056374;28;20095;-76
2022/05/01 01:07:02;;;;;;;30.23;26.92;;;6.60;99.90;;;;;;5042091;28;20188;-76
2022/05/01 01:09:30;;;;;;;29.80;26.88;;;6.60;99.90;;;;;;5032078;28;20109;-77
2022/05/01 01:14:42;;;;;;;28.50;26.02;;;6.70;99.90;;;;;;5036061;28;20073;-76
2022/05/01 01:17:10;;;;;;;28.42;25.98;;;6.70;99.90;;;;;;5039880;28;20181;-76
2022/05/01 01:19:37;;;;;;;27.60;25.20;;;6.80;99.90;;;;;;5020997;28;20318;-75
2022/05/01 01:22:07;;;;;;;27.85;25.20;;;6.80;99.90;;;;;;5021008;28;20119;-76
2022/05/01 01:24:39;;;;;;;26.02;23.77;;;6.90;99.90;;;;;;5045348;28;20046;-75
2022/05/01 01:27:06;;;;;;;25.95;23.50;;;6.90;99.90;;;;;;5048103;28;20335;-76
2022/05/01 01:32:19;;;;;;;27.83;25.17;;;7.00;99.90;;;;;;5039054;28;20061;-75
2022/05/01 01:34:50;;;;;;;25.67;23.48;;;7.10;99.90;;;;;;5039523;28;20068;-76
2022/05/01 01:37:18;;;;;;;26.95;24.38;;;7.10;99.90;;;;;;5032509;28;20118;-76
2022/05/01 01:39:46;;;;;;;27.58;25.08;;;7.20;99.90;;;;;;5028089;28;20557;-77
2022/05/01 01:42:15;;;;;;;28.42;25.73;;;7.20;99.90;;;;;;5034298;28;20045;-76
2022/05/01 01:44:43;;;;;;;27.55;25.08;;;7.20;99.90;;;;;;5049313;28;20724;-76
2022/05/01 01:47:14;;;;;;;27.92;25.73;;;7.20;99.90;;;;;;5039826;28;20580;-76
2022/05/01 01:49:40;;;;;;;29.83;26.88;;;7.30;99.90;;;;;;5039050;28;20063;-76
2022/05/01 01:52:08;;;;;;;29.67;26.98;;;7.40;99.90;;;;;;5042981;28;20103;-77
2022/05/01 01:57:23;;;;;;;26.55;23.85;;;7.40;99.90;;;;;;4992928;28;20072;-73
2022/05/01 01:59:49;;;;;;;25.13;23.23;;;7.50;99.90;;;;;;4996151;28;20481;-74
2022/05/01 02:02:16;;;;;;;28.08;25.38;;;7.50;99.90;;;;;;5010001;28;20060;-74
2022/05/01 02:04:43;;;;;;;29.10;26.52;;;7.60;99.90;;;;;;4995253;28;20124;-74
2022/05/01 02:07:10;;;;;;;28.27;25.70;;;7.60;99.90;;;;;;4995550;28;20330;-74
2022/05/01 02:09:38;;;;;;;26.60;24.52;;;7.70;99.90;;;;;;4994650;28;20054;-74
2022/05/01 02:12:09;;;;;;;28.73;26.30;;;7.70;99.90;;;;;;4992412;28;20174;-74
2022/05/01 02:14:36;;;;;;;30.17;27.40;;;7.60;99.90;;;;;;4994957;28;20586;-74
2022/05/01 02:17:04;;;;;;;28.77;26.42;;;7.70;99.90;;;;;;5009815;28;20117;-74
2022/05/01 02:19:31;;;;;;;28.90;26.48;;;7.70;99.90;;;;;;4995965;28;20128;-74
2022/05/01 02:21:58;;;;;;;31.23;28.25;;;7.70;99.90;;;;;;4995664;28;20215;-74
2022/05/01 02:24:25;;;;;;;30.52;27.58;;;7.70;99.90;;;;;;4991500;28;20647;-75
2022/05/01 02:26:52;;;;;;;29.60;27.00;;;7.60;99.90;;;;;;4994530;28;20153;-74
2022/05/01 02:29:19;;;;;;;30.17;27.45;;;7.60;99.90;;;;;;4977716;28;20318;-75
2022/05/01 02:31:45;;;;;;;27.92;25.63;;;7.50;99.90;;;;;;4993280;28;20115;-74
2022/05/01 02:34:12;;;;;;;29.35;26.40;;;7.60;99.90;;;;;;4993168;28;20097;-73
2022/05/01 02:36:39;;;;;;;28.00;25.42;;;7.60;99.90;;;;;;4994530;28;20183;-73
2022/05/01 02:39:06;;;;;;;26.52;24.30;;;7.50;99.90;;;;;;4992593;28;20075;-73
2022/05/01 02:41:33;;;;;;;28.55;26.05;;;7.50;99.90;;;;;;4993465;28;20379;-73
2022/05/01 02:44:00;;;;;;;25.80;23.58;;;7.60;99.90;;;;;;4993974;28;20150;-73
2022/05/01 02:46:27;;;;;;;27.02;24.50;;;7.60;99.90;;;;;;4991690;28;20625;-73
2022/05/01 02:48:55;;;;;;;27.35;24.90;;;7.70;99.90;;;;;;4995380;28;20042;-72
2022/05/01 02:51:22;;;;;;;28.45;25.75;;;7.70;99.90;;;;;;4994484;28;20214;-73
2022/05/01 02:53:48;;;;;;;29.23;26.63;;;7.80;99.90;;;;;;4993885;28;20053;-73
2022/05/01 02:56:15;;;;;;;27.70;25.52;;;7.70;99.90;;;;;;4992725;28;20195;-73
2022/05/01 02:58:42;;;;;;;28.70;26.27;;;7.80;99.90;;;;;;5010076;28;20418;-73
2022/05/01 03:01:10;;;;;;;28.85;26.40;;;7.80;99.90;;;;;;4990359;28;20096;-74
2022/05/01 03:03:37;;;;;;;28.30;26.00;;;7.90;99.90;;;;;;4994370;28;20064;-74
2022/05/01 03:06:04;;;;;;;29.88;27.15;;;7.80;99.90;;;;;;4993176;28;20465;-73
2022/05/01 03:08:30;;;;;;;29.02;26.48;;;7.70;99.90;;;;;;4994403;28;20045;-73
2022/05/01 03:10:56;;;;;;;29.63;26.85;;;7.80;99.90;;;;;;4992143;28;20112;-72
2022/05/01 03:13:23;;;;;;;28.42;26.05;;;7.70;99.90;;;;;;4991358;28;20057;-73
2022/05/01 03:15:50;;;;;;;27.80;25.40;;;7.60;99.90;;;;;;4993116;28;20104;-73
2022/05/01 03:23:49;;;;;;;28.73;26.33;;;7.60;99.90;;;;;;4989057;28;20253;-73
2022/05/01 03:26:18;;;;;;;28.80;26.02;;;7.60;99.90;;;;;;4982946;28;20147;-73
2022/05/01 03:28:46;;;;;;;30.20;27.58;;;7.60;99.90;;;;;;4993061;28;20046;-72
2022/05/01 03:31:13;;;;;;;30.88;28.08;;;7.60;99.90;;;;;;4990558;28;20096;-73
2022/05/01 03:33:41;;;;;;;29.13;26.52;;;7.60;99.90;;;;;;4991503;28;20078;-73
2022/05/01 03:36:09;;;;;;;29.65;26.85;;;7.50;99.90;;;;;;4994318;28;20091;-73
2022/05/01 03:38:37;;;;;;;28.60;25.95;;;7.60;99.90;;;;;;4991502;28;20058;-73
2022/05/01 03:41:05;;;;;;;29.90;26.92;;;7.50;99.90;;;;;;4992855;28;20199;-74
2022/05/01 03:43:32;;;;;;;28.42;26.02;;;7.60;99.90;;;;;;4973517;28;20042;-73
2022/05/01 03:46:00;;;;;;;29.70;26.70;;;7.50;99.90;;;;;;4991308;28;20545;-75
2022/05/01 03:48:28;;;;;;;29.83;27.23;;;7.40;99.90;;;;;;5010011;28;20098;-75
2022/05/01 03:50:54;;;;;;;29.17;26.35;;;7.50;99.90;;;;;;4991301;28;20849;-74
2022/05/01 03:53:22;;;;;;;30.25;27.15;;;7.60;99.90;;;;;;4973837;28;20069;-74
2022/05/01 03:55:49;;;;;;;29.73;26.98;;;7.50;99.90;;;;;;4992825;28;20581;-74
2022/05/01 03:58:16;;;;;;;31.75;27.88;;;7.60;99.90;;;;;;4991997;28;20122;-74
2022/05/01 04:00:47;;;;;;;30.35;27.05;;;7.60;99.90;;;;;;4991819;28;20049;-73
2022/05/01 04:03:15;;;;;;;29.63;26.73;;;7.50;99.90;;;;;;4991387;28;20422;-73
2022/05/01 04:05:43;;;;;;;29.55;26.75;;;7.60;99.90;;;;;;4993783;28;20046;-74
2022/05/01 04:08:10;;;;;;;28.30;25.20;;;7.60;99.90;;;;;;4991138;28;20046;-74
2022/05/01 04:10:39;;;;;;;28.98;26.17;;;7.60;99.90;;;;;;4992476;28;20054;-74
2022/05/01 04:13:06;;;;;;;29.27;26.60;;;7.60;99.90;;;;;;5006666;28;20050;-74
2022/05/01 04:15:33;;;;;;;30.15;27.33;;;7.60;99.90;;;;;;4993409;28;20038;-74
2022/05/01 04:18:02;;;;;;;29.58;26.95;;;7.60;99.90;;;;;;4974748;28;20237;-73
2022/05/01 04:20:29;;;;;;;29.02;26.33;;;7.60;99.90;;;;;;4991523;28;20096;-73
2022/05/01 04:22:56;;;;;;;27.98;25.30;;;7.70;99.90;;;;;;4990590;28;20515;-73
2022/05/01 04:25:31;;;;;;;28.48;25.85;;;7.70;99.90;;;;;;4993149;28;20517;-73
2022/05/01 04:28:11;;;;;;;30.48;27.70;;;7.70;99.90;;;;;;4994736;28;20626;-73
2022/05/01 04:30:39;;;;;;;29.83;26.95;;;7.70;99.90;;;;;;4972826;28;20057;-73
2022/05/01 04:33:09;;;;;;;30.45;27.75;;;7.80;99.90;;;;;;4990791;28;20065;-73
2022/05/01 04:35:50;;;;;;;30.20;27.40;;;7.80;99.90;;;;;;4993225;28;20046;-72
2022/05/01 04:38:23;;;;;;;29.77;27.08;;;7.70;99.90;;;;;;4992933;28;20110;-73
2022/05/01 04:40:55;;;;;;;29.65;26.95;;;7.80;99.90;;;;;;4993437;28;20065;-73
2022/05/01 04:43:23;;;;;;;28.80;26.20;;;7.80;99.90;;;;;;4992232;28;20046;-73
2022/05/01 04:45:52;;;;;;;27.52;25.25;;;7.80;99.90;;;;;;4991914;28;20137;-73
2022/05/01 04:48:20;;;;;;;26.67;24.23;;;7.80;99.90;;;;;;4993800;28;20419;-72
2022/05/01 04:50:48;;;;;;;27.10;24.60;;;7.80;99.90;;;;;;4993958;28;20053;-72
2022/05/01 04:53:17;;;;;;;24.50;22.48;;;7.80;99.90;;;;;;4991698;28;20780;-73
2022/05/01 04:55:46;;;;;;;26.17;23.90;;;7.80;99.90;;;;;;4993883;28;20046;-72
2022/05/01 04:58:17;;;;;;;26.90;24.38;;;7.70;99.90;;;;;;4994452;28;20042;-73
2022/05/01 05:00:44;;;;;;;26.88;24.30;;;7.70;99.90;;;;;;4992341;28;20576;-73
2022/05/01 05:03:12;;;;;;;26.45;24.02;;;7.70;99.90;;;;;;4992084;28;20405;-74
2022/05/01 05:05:39;;;;;;;24.73;22.33;;;7.60;99.90;;;;;;4993654;28;20065;-73
2022/05/01 05:10:51;;;;;;;;;;;7.80;99.90;;;;;;4994538;28;20073;-74
2022/05/01 05:13:24;;;;;;;26.73;23.92;;;7.80;99.90;;;;;;4992133;28;19925;-73
2022/05/01 05:15:53;;;;;;;27.00;24.75;;;8.00;99.90;;;;;;4997007;28;20100;-74
2022/05/01 05:18:20;;;;;;;26.23;24.00;;;8.10;99.90;;;;;;4996063;28;20114;-73
2022/05/01 05:20:47;;;;;;;29.25;26.35;;;8.10;99.90;;;;;;5010311;28;20038;-74
2022/05/01 05:23:14;;;;;;;29.05;26.25;;;8.10;99.90;;;;;;4995866;28;20053;-74
2022/05/01 05:25:40;;;;;;;27.90;25.15;;;8.10;99.90;;;;;;4978374;28;20080;-73
2022/05/01 05:28:08;;;;;;;28.77;26.10;;;8.20;99.90;;;;;;4994957;28;20099;-74
2022/05/01 05:30:35;;;;;;;30.20;27.20;;;8.30;99.90;;;;;;4996837;28;20054;-74
2022/05/01 05:33:06;;;;;;;29.40;26.70;;;8.40;99.90;;;;;;4991927;28;20054;-73
2022/05/01 05:35:32;;;;;;;29.92;27.15;;;8.60;99.90;;;;;;4996552;28;20318;-72
2022/05/01 05:37:59;;;;;;;26.90;24.90;;;8.70;99.90;;;;;;4995931;28;20066;-74
2022/05/01 05:40:26;;;;;;;28.73;26.33;;;8.70;99.90;;;;;;5010190;28;20332;-73
2022/05/01 05:42:53;;;;;;;28.25;26.00;;;8.70;99.90;;;;;;5009068;28;20108;-73
2022/05/01 05:45:20;;;;;;;28.63;26.05;;;8.70;99.90;;;;;;4994014;28;20053;-73
2022/05/01 05:47:47;;;;;;;29.23;26.77;;;8.70;99.90;;;;;;4992719;28;20054;-73
2022/05/01 05:50:13;;;;;;;29.35;26.90;;;8.80;99.90;;;;;;4995245;28;20077;-74
2022/05/01 05:52:41;;;;;;;29.23;26.58;;;8.90;99.90;;;;;;4993261;28;20077;-73
2022/05/01 05:55:08;;;;;;;30.48;27.77;;;9.00;99.90;;;;;;4992627;28;20387;-73
2022/05/01 05:57:35;;;;;;;28.90;26.50;;;9.00;99.90;;;;;;4995220;28;20439;-73
2022/05/01 06:00:03;;;;;;;29.05;26.45;;;9.00;99.90;;;;;;4995076;28;20668;-73
2022/05/01 06:02:38;;;;;;;28.23;26.02;;;8.90;99.90;;;;;;4994630;28;20721;-72
2022/05/01 06:05:06;;;;;;;28.08;25.77;;;8.90;99.90;;;;;;4993848;28;20080;-76
2022/05/01 06:07:34;;;;;;;27.58;25.35;;;8.90;99.90;;;;;;4992296;28;20100;-75
2022/05/01 06:10:00;;;;;;;29.38;26.58;;;9.00;99.90;;;;;;4993266;28;20305;-74
2022/05/01 06:12:28;;;;;;;29.83;27.15;;;9.10;99.90;;;;;;4993447;28;20042;-75
2022/05/01 06:14:55;;;;;;;28.60;26.27;;;9.20;99.90;;;;;;4991598;28;20225;-74
2022/05/01 06:17:22;;;;;;;29.52;27.10;;;9.20;99.90;;;;;;4994678;28;20045;-73
2022/05/01 06:19:48;;;;;;;29.88;27.60;;;9.20;99.90;;;;;;4995088;28;20061;-73
2022/05/01 06:22:16;;;;;;;28.88;26.83;;;9.10;99.90;;;;;;4991265;28;20696;-72
2022/05/01 06:24:42;;;;;;;27.92;25.60;;;8.90;99.90;;;;;;4991266;28;20589;-75
2022/05/01 06:27:09;;;;;;;27.40;25.30;;;8.90;99.90;;;;;;4994028;28;20061;-74
2022/05/01 06:29:36;;;;;;;26.20;24.30;;;8.90;99.90;;;;;;4995492;28;20050;-74
2022/05/01 06:32:03;;;;;;;27.35;25.33;;;8.80;99.90;;;;;;4992768;28;20073;-75
2022/05/01 06:34:30;;;;;;;28.85;26.63;;;8.90;99.90;;;;;;4994292;28;20073;-75
2022/05/01 06:36:57;;;;;;;28.67;25.95;;;8.90;99.90;;;;;;4993267;28;20422;-75
2022/05/01 06:39:24;;;;;;;28.65;25.63;;;9.00;99.90;;;;;;4994202;28;20812;-75
2022/05/01 06:41:51;;;;;;;26.98;25.08;;;9.20;99.90;;;;;;4991017;28;20580;-75
2022/05/01 06:44:19;;;;;;;27.70;25.45;;;9.30;99.90;;;;;;4993033;28;20067;-74
2022/05/01 06:46:46;;;;;;;28.52;26.10;;;9.20;99.90;;;;;;4993870;28;20046;-74
2022/05/01 06:49:13;;;;;;;28.67;26.67;;;9.30;99.90;;;;;;4992654;28;20046;-73
2022/05/01 06:51:40;;;;;;;27.75;25.65;;;9.40;99.90;;;;;;4974950;28;20058;-71
2022/05/01 06:54:08;;;;;;;27.52;25.38;;;9.40;99.90;;;;;;4991305;28;20146;-71
2022/05/01 06:56:35;;;;;;;29.13;27.08;;;9.50;99.90;;;;;;4990487;28;20596;-71
2022/05/01 06:59:02;;;;;;;27.92;25.70;;;9.60;99.90;;;;;;4993811;28;20099;-73
2022/05/01 07:01:29;;;;;;;29.17;26.98;;;9.50;99.90;;;;;;4992361;28;20041;-74
2022/05/01 07:03:56;;;;;;;28.70;26.45;;;9.50;99.90;;;;;;4991009;28;20046;-75
2022/05/01 07:06:23;;;;;;;27.92;25.92;;;9.60;99.90;;;;;;4992910;28;20080;-75
2022/05/01 07:08:50;;;;;;;27.90;25.92;;;9.70;99.90;;;;;;4991926;28;20108;-75
2022/05/01 07:11:16;;;;;;;26.25;24.38;;;9.90;99.90;;;;;;5007442;28;20077;-74
2022/05/01 07:13:43;;;;;;;27.40;25.48;;;10.10;99.90;;;;;;4977743;28;20042;-75
2022/05/01 07:16:10;;;;;;;28.75;26.40;;;10.20;99.90;;;;;;4992634;28;20133;-74
2022/05/01 07:18:37;;;;;;;28.45;26.35;;;10.40;99.90;;;;;;4994052;28;20427;-73
2022/05/01 07:21:04;;;;;;;27.25;25.45;;;10.50;99.90;;;;;;4992563;28;20049;-72
2022/05/01 07:23:31;;;;;;;27.23;25.30;;;10.60;99.90;;;;;;4993212;28;20175;-74
2022/05/01 07:25:57;;;;;;;27.73;25.35;;;10.50;99.90;;;;;;4993286;28;20057;-73
2022/05/01 07:28:25;;;;;;;27.42;24.80;;;10.50;99.90;;;;;;4977037;28;20097;-74
2022/05/01 07:30:52;;;;;;;28.05;26.08;;;10.40;99.90;;;;;;4993893;28;20041;-74
2022/05/01 07:33:19;;;;;;;27.88;25.98;;;10.20;99.90;;;;;;4994055;28;20046;-73
2022/05/01 07:35:46;;;;;;;28.10;26.10;;;10.10;99.90;;;;;;4992511;28;20053;-73
2022/05/01 07:38:13;;;;;;;26.23;24.52;;;10.20;99.90;;;;;;4991105;28;20419;-72
2022/05/01 07:40:40;;;;;;;26.42;24.60;;;10.20;99.90;;;;;;4993123;28;20054;-74
2022/05/01 07:43:06;;;;;;;26.45;24.65;;;10.10;99.90;;;;;;4991596;28;20614;-74
2022/05/01 07:45:33;;;;;;;25.45;23.67;;;9.80;99.90;;;;;;4992946;28;20088;-74
2022/05/01 07:48:08;;;;;;;25.60;23.90;;;9.80;99.90;;;;;;4994984;28;20105;-74
2022/05/01 07:50:35;;;;;;;25.67;23.98;;;9.90;99.90;;;;;;5007786;28;20053;-73
2022/05/01 07:53:02;;;;;;;24.58;22.63;;;9.90;99.90;;;;;;4994381;28;20050;-74
2022/05/01 07:55:29;;;;;;;24.58;23.00;;;10.20;99.90;;;;;;5021978;23;20313;-72
2022/05/01 07:57:56;;;;;;;27.00;25.08;;;10.20;99.90;;;;;;4983352;28;20407;-74
2022/05/01 08:00:23;;;;;;;25.60;23.90;;;10.30;99.90;;;;;;5013547;28;20131;-76
2022/05/01 08:05:35;;;;;;;;;;;10.40;99.90;;;;;;4981092;28;20089;-76
2022/05/01 08:08:02;;;;;;;26.95;24.98;;;10.30;99.90;;;;;;4978168;28;19925;-75
2022/05/01 08:10:28;;;;;;;26.50;24.60;;;10.10;99.90;;;;;;4978554;28;20553;-75
2022/05/01 08:12:57;;;;;;;27.38;25.05;;;10.20;99.90;;;;;;4970055;28;20134;-75
2022/05/01 08:15:24;;;;;;;27.85;25.23;;;10.20;99.90;;;;;;4987192;28;20050;-75
2022/05/01 08:17:50;;;;;;;27.05;25.10;;;10.10;99.90;;;;;;4964775;28;20089;-76
2022/05/01 08:23:08;;;;;;;27.92;25.92;;;10.10;99.90;;;;;;4998482;28;20588;-75
2022/05/01 08:25:35;;;;;;;29.05;26.88;;;10.20;99.90;;;;;;4973785;28;20339;-75
2022/05/01 08:28:02;;;;;;;27.95;25.90;;;9.90;99.90;;;;;;4990980;28;20120;-75
2022/05/01 08:30:29;;;;;;;30.02;27.70;;;9.90;99.90;;;;;;4984999;28;20050;-76
2022/05/01 08:32:57;;;;;;;28.60;26.15;;;10.00;99.90;;;;;;4993179;28;20045;-76
2022/05/01 08:35:23;;;;;;;28.45;26.38;;;9.80;99.90;;;;;;4986085;28;20494;-75
2022/05/01 08:37:50;;;;;;;28.80;26.83;;;9.80;99.90;;;;;;4998237;28;20144;-75
2022/05/01 08:40:18;;;;;;;27.73;25.83;;;9.80;99.90;;;;;;4994403;28;20038;-75
2022/05/01 08:42:46;;;;;;;29.60;27.23;;;9.80;99.90;;;;;;4987871;28;20046;-75
2022/05/01 08:45:16;;;;;;;29.42;27.45;;;9.70;99.90;;;;;;4986319;28;20415;-76
2022/05/01 08:47:54;;;;;;;28.73;26.55;;;9.90;99.90;;;;;;5005441;28;20116;-75
2022/05/01 08:50:22;;;;;;;29.38;27.20;;;10.00;99.90;;;;;;5007667;28;20070;-75
2022/05/01 08:52:49;;;;;;;27.75;25.75;;;10.10;99.90;;;;;;4996032;28;20141;-76
2022/05/01 08:55:17;;;;;;;29.27;26.90;;;10.10;99.90;;;;;;4986801;28;20054;-75
2022/05/01 08:57:44;;;;;;;28.15;26.05;;;10.10;99.90;;;;;;4987434;28;20085;-75
2022/05/01 09:00:16;;;;;;;28.95;26.95;;;10.00;99.90;;;;;;5002259;28;20517;-75
2022/05/01 09:02:44;;;;;;;28.80;26.65;;;10.00;99.90;;;;;;4982619;28;20556;-75
2022/05/01 09:05:12;;;;;;;29.40;27.08;;;10.10;99.90;;;;;;5011161;28;20406;-75
2022/05/01 09:07:39;;;;;;;26.77;24.98;;;9.90;99.90;;;;;;4993529;28;20145;-75
2022/05/01 09:10:08;;;;;;;29.98;27.30;;;9.70;99.90;;;;;;4999875;28;20495;-75
2022/05/01 09:12:49;;;;;;;28.30;26.40;;;9.80;99.90;;;;;;4991084;28;20132;-75
2022/05/01 09:15:36;;;;;;;28.27;26.17;;;9.80;99.90;;;;;;4986883;28;20054;-75
2022/05/01 09:18:06;;;;;;;29.25;27.15;;;9.80;99.90;;;;;;4996344;28;20045;-75
2022/05/01 09:20:33;;;;;;;29.77;27.80;;;9.80;99.90;;;;;;4998373;28;20452;-76
2022/05/01 09:23:00;;;;;;;29.67;27.48;;;9.80;99.90;;;;;;5001476;23;20077;-75
2022/05/01 09:25:28;;;;;;;29.48;27.58;;;10.00;99.90;;;;;;5002808;28;20045;-74
2022/05/01 09:28:02;;;;;;;28.35;26.25;;;10.20;99.90;;;;;;5010079;28;20074;-74
2022/05/01 09:30:34;;;;;;;26.00;24.40;;;10.20;99.90;;;;;;4993745;28;20049;-72
2022/05/01 09:33:02;;;;;;;27.25;25.45;;;10.20;99.90;;;;;;4992255;28;20459;-74
2022/05/01 09:35:31;;;;;;;27.27;25.38;;;10.30;99.90;;;;;;5004220;28;20121;-74
2022/05/01 09:38:25;;;;;;;27.38;25.58;;;10.40;99.90;;;;;;5011946;28;20057;-74
2022/05/01 09:41:01;;;;;;;29.13;26.90;;;10.50;99.90;;;;;;5011440;28;20736;-75
2022/05/01 09:43:44;;;;;;;27.52;25.67;;;10.50;99.90;;;;;;4996460;28;20264;-74
2022/05/01 09:46:22;;;;;;;30.02;27.70;;;10.50;99.90;;;;;;5028953;28;20049;-74
2022/05/01 09:49:10;;;;;;;28.35;26.35;;;10.50;99.90;;;;;;5031792;28;20468;-75
2022/05/01 09:51:46;;;;;;;28.40;25.85;;;10.50;99.90;;;;;;4993161;28;20506;-74
2022/05/01 09:54:21;;;;;;;28.13;26.08;;;10.60;99.90;;;;;;4976413;28;20073;-75
2022/05/01 09:56:47;;;;;;;29.17;27.20;;;10.70;99.90;;;;;;4993614;28;20133;-71
2022/05/01 09:59:16;;;;;;;28.65;26.55;;;10.70;99.90;;;;;;4994359;28;20054;-74
2022/05/01 10:02:03;;;;;;;27.95;25.92;;;10.70;99.90;;;;;;4993114;28;20057;-75
2022/05/01 10:04:35;;;;;;;27.38;25.67;;;10.70;99.90;;;;;;4998776;28;20116;-74
2022/05/01 10:07:04;;;;;;;27.67;25.85;;;10.60;99.90;;;;;;5015706;28;20357;-73
2022/05/01 10:09:33;;;;;;;27.20;25.15;;;10.50;99.90;;;;;;5015297;28;20041;-73
2022/05/01 10:12:08;;;;;;;27.30;25.42;;;10.60;99.90;;;;;;5009300;28;20046;-74
2022/05/01 10:14:35;;;;;;;26.95;25.35;;;10.60;99.90;;;;;;5010569;28;20055;-74
2022/05/01 10:17:03;;;;;;;26.35;24.42;;;10.60;99.90;;;;;;4992822;28;20045;-73
2022/05/01 10:19:32;;;;;;;26.55;24.58;;;10.60;99.90;;;;;;4992573;28;20054;-75
2022/05/01 10:22:03;;;;;;;25.83;24.13;;;10.50;99.90;;;;;;5009704;28;20049;-74
2022/05/01 10:24:30;;;;;;;27.30;25.38;;;10.60;99.90;;;;;;5011196;28;20057;-74
2022/05/01 10:27:05;;;;;;;27.30;25.60;;;10.60;99.90;;;;;;5010787;28;20050;-74
2022/05/01 10:29:37;;;;;;;35.22;32.53;;;10.60;99.90;;;;;;5012418;28;20045;-73
2022/05/01 10:32:23;;;;;;;30.45;28.30;;;10.50;99.90;;;;;;5028849;28;20045;-74
2022/05/01 10:35:33;;;;;;;27.63;25.67;;;10.40;99.90;;;;;;5008757;28;20041;-74
2022/05/01 10:38:17;;;;;;;36.53;32.97;;;10.50;99.90;;;;;;5010010;28;20110;-74
2022/05/01 10:40:55;;;;;;;37.33;33.88;;;10.50;99.90;;;;;;5013175;28;20081;-75
2022/05/01 10:43:35;;;;;;;37.63;34.05;;;10.50;99.90;;;;;;5007635;28;20057;-74
2022/05/01 10:46:23;;;;;;;77.10;56.30;;;10.70;99.90;;;;;;5011642;28;20152;-74
2022/05/01 10:48:50;;;;;;;31.63;29.02;;;10.80;99.90;;;;;;5013996;28;20545;-74
2022/05/01 10:51:49;;;;;;;34.15;30.98;;;11.20;99.90;;;;;;5008142;28;20292;-74
2022/05/01 10:54:19;;;;;;;29.17;26.90;;;11.40;99.90;;;;;;4993378;28;20077;-74
2022/05/01 10:56:51;;;;;;;38.25;34.28;;;11.60;99.90;;;;;;5002572;28;20517;-71
2022/05/01 10:59:39;;;;;;;29.75;27.48;;;11.60;99.90;;;;;;5023664;28;20512;-72
2022/05/01 11:02:22;;;;;;;36.95;33.40;;;11.70;99.90;;;;;;5005857;28;20050;-71
2022/05/01 11:04:51;;;;;;;28.45;26.45;;;11.70;99.90;;;;;;4996274;28;20052;-71
2022/05/01 11:07:19;;;;;;;28.88;26.88;;;11.70;99.90;;;;;;5009073;28;20529;-73
2022/05/01 11:09:48;;;;;;;32.08;29.75;;;11.70;99.90;;;;;;5011277;28;20061;-71
2022/05/01 11:12:22;;;;;;;26.63;24.85;;;12.00;99.90;;;;;;4992081;28;20053;-71
2022/05/01 11:14:59;;;;;;;26.92;25.20;;;12.20;99.90;;;;;;5011326;28;20053;-69
2022/05/01 11:17:50;;;;;;;27.77;25.98;;;11.70;99.90;;;;;;5007201;28;20096;-72
2022/05/01 11:20:21;;;;;;;27.65;25.95;;;11.40;99.90;;;;;;5000286;28;20475;-72
2022/05/01 11:22:48;;;;;;;28.20;26.30;;;11.50;99.90;;;;;;5012412;28;20179;-72
2022/05/01 11:25:39;;;;;;;27.38;25.77;;;11.40;99.90;;;;;;5005668;28;20046;-72
2022/05/01 11:28:07;;;;;;;27.42;25.27;;;11.70;99.90;;;;;;4984543;28;20520;-72
2022/05/01 11:30:35;;;;;;;26.65;24.95;;;11.70;99.90;;;;;;5005972;28;20046;-72
2022/05/01 11:33:02;;;;;;;28.55;26.58;;;11.70;99.90;;;;;;4990835;28;20037;-72
2022/05/01 11:35:53;;;;;;;28.90;27.00;;;11.70;99.90;;;;;;5008907;28;20046;-72
2022/05/01 11:38:22;;;;;;;26.63;24.80;;;11.90;99.90;;;;;;4988741;28;20057;-71
2022/05/01 11:40:57;;;;;;;27.17;25.58;;;12.20;99.90;;;;;;5007185;28;20041;-71
2022/05/01 11:43:24;;;;;;;27.10;25.52;;;12.60;99.90;;;;;;5007977;28;20056;-72
2022/05/01 11:45:51;;;;;;;27.33;25.38;;;12.90;99.90;;;;;;5010467;28;20116;-72
2022/05/01 11:48:19;;;;;;;27.02;25.35;;;12.90;99.90;;;;;;5003154;28;20045;-72
2022/05/01 11:50:48;;;;;;;27.63;25.63;;;12.90;99.90;;;;;;5020527;28;20252;-71
2022/05/01 11:53:17;;;;;;;28.52;26.63;;;12.60;99.90;;;;;;5009332;28;20052;-72
2022/05/01 12:04:35;;;;;;;26.98;25.02;;;11.80;99.90;;;;;;5010954;28;20061;-71
2022/05/01 12:07:03;;;;;;;26.50;24.75;;;12.00;99.90;;;;;;5011510;28;20045;-72
2022/05/01 12:09:34;;;;;;;27.45;25.48;;;12.00;99.90;;;;;;5009950;28;20053;-73
2022/05/01 12:12:02;;;;;;;27.85;25.95;;;11.80;99.90;;;;;;5009456;28;20056;-72
2022/05/01 12:14:28;;;;;;;28.90;26.80;;;11.80;99.90;;;;;;5009257;28;20045;-71
2022/05/01 12:16:56;;;;;;;27.67;25.65;;;11.80;99.90;;;;;;5010972;28;20045;-71
2022/05/01 12:19:37;;;;;;;27.27;25.50;;;11.80;99.90;;;;;;5023940;28;20359;-72
2022/05/01 12:22:06;;;;;;;26.85;25.05;;;12.00;99.90;;;;;;5007563;28;20053;-72
2022/05/01 12:24:38;;;;;;;26.70;25.08;;;12.00;99.90;;;;;;5002683;28;20140;-71
2022/05/01 12:27:06;;;;;;;27.67;25.77;;;12.10;99.90;;;;;;4989794;28;20046;-71
2022/05/01 12:29:35;;;;;;;28.05;26.23;;;12.00;99.90;;;;;;4998043;28;20100;-71
2022/05/01 12:32:06;;;;;;;27.90;25.73;;;12.10;99.90;;;;;;5008078;28;20396;-71
2022/05/01 12:34:37;;;;;;;28.10;26.20;;;12.10;99.90;;;;;;5008156;28;20046;-72
2022/05/01 12:37:09;;;;;;;28.27;26.40;;;12.00;99.90;;;;;;5010072;28;20054;-72
2022/05/01 12:39:36;;;;;;;26.98;25.27;;;12.00;99.90;;;;;;5007456;28;20054;-71
2022/05/01 12:45:10;;;;;;;27.35;25.42;;;12.10;99.90;;;;;;5010228;28;20724;-72
2022/05/01 12:47:39;;;;;;;27.90;25.88;;;12.30;99.90;;;;;;5005806;28;20046;-71
2022/05/01 12:50:09;;;;;;;27.38;25.48;;;12.40;99.90;;;;;;4995041;28;20751;-72
2022/05/01 12:52:39;;;;;;;27.05;25.17;;;12.40;99.90;;;;;;4988385;28;20457;-72
2022/05/01 12:55:14;;;;;;;28.25;26.13;;;12.10;99.90;;;;;;4990057;28;20057;-72
2022/05/01 12:57:43;;;;;;;27.15;25.13;;;12.40;99.90;;;;;;4989913;28;20342;-72
2022/05/01 13:00:11;;;;;;;27.88;25.85;;;12.50;99.90;;;;;;4992790;28;20561;-71
2022/05/01 13:02:38;;;;;;;27.83;25.58;;;12.70;99.90;;;;;;5024918;28;20530;-72
2022/05/01 13:05:07;;;;;;;28.27;26.25;;;12.80;99.90;;;;;;5008803;28;20045;-72
2022/05/01 13:07:38;;;;;;;28.23;26.30;;;12.70;99.90;;;;;;5010259;28;20336;-72
2022/05/01 13:10:17;;;;;;;27.88;25.98;;;12.50;99.90;;;;;;5006349;28;20042;-72
2022/05/01 13:12:58;;;;;;;27.02;25.23;;;12.40;99.90;;;;;;5008195;28;20045;-72
2022/05/01 13:15:38;;;;;;;28.70;26.48;;;12.30;99.90;;;;;;5007560;28;20038;-72
2022/05/01 13:18:05;;;;;;;28.65;26.45;;;12.50;99.90;;;;;;5006185;28;20033;-72
2022/05/01 13:20:32;;;;;;;26.90;25.13;;;12.70;99.90;;;;;;5003439;28;20494;-72